createdAt,value
2019-04-30T00:00:34.620Z,62.15
2019-04-30T00:01:15.109Z,61.96
2019-04-30T00:01:55.493Z,61.96
2019-04-30T00:02:39.671Z,61.77
2019-04-30T00:03:19.218Z,61.96
2019-04-30T00:03:59.163Z,62.15
2019-04-30T00:04:40.179Z,62.34
2019-04-30T00:05:18.670Z,62.34
2019-04-30T00:05:57.626Z,62.62
2019-04-30T00:06:39.389Z,62.24
2019-04-30T00:09:36.726Z,62.24
2019-04-30T00:10:17.288Z,62.24
2019-04-30T00:10:57.886Z,62.72
2019-04-30T00:11:38.448Z,62.53
2019-04-30T00:12:19.000Z,62.62
2019-04-30T00:12:59.571Z,62.34
2019-04-30T00:13:40.126Z,62.53
2019-04-30T00:14:20.694Z,62.34
2019-04-30T00:15:01.248Z,62.62
2019-04-30T00:15:41.807Z,62.53
2019-04-30T00:16:22.367Z,63.2
2019-04-30T00:17:02.957Z,62.81
2019-04-30T00:17:45.602Z,62.62
2019-04-30T00:18:25.417Z,63.01
2019-04-30T00:19:06.122Z,63.1
2019-04-30T00:19:45.886Z,62.62
2019-04-30T00:20:29.966Z,62.34
2019-04-30T00:21:09.870Z,62.43
2019-04-30T00:21:48.164Z,62.34
2019-04-30T00:22:33.461Z,63.1
2019-04-30T00:23:07.956Z,62.91
2019-04-30T00:23:48.546Z,62.81
2019-04-30T00:24:29.128Z,62.81
2019-04-30T00:25:09.697Z,63.01
2019-04-30T00:25:50.280Z,62.81
2019-04-30T00:26:30.844Z,62.81
2019-04-30T00:27:11.426Z,62.81
2019-04-30T00:27:51.979Z,62.72
2019-04-30T00:28:32.538Z,63.01
2019-04-30T00:29:17.247Z,62.81
2019-04-30T00:29:55.658Z,63.01
2019-04-30T00:30:35.010Z,62.81
2019-04-30T00:31:17.178Z,63.01
2019-04-30T00:31:57.561Z,62.81
2019-04-30T00:32:37.122Z,62.62
2019-04-30T00:33:22.018Z,63.1
2019-04-30T00:34:01.014Z,63.01
2019-04-30T00:34:39.316Z,62.91
2019-04-30T00:35:19.473Z,63.1
2019-04-30T00:35:58.706Z,62.81
2019-04-30T00:36:39.265Z,63.57
2019-04-30T00:37:19.824Z,63.29
2019-04-30T00:38:00.377Z,63.29
2019-04-30T00:38:40.939Z,62.81
2019-04-30T00:39:21.514Z,63.01
2019-04-30T00:40:02.076Z,62.78
2019-04-30T00:40:42.641Z,63.01
2019-04-30T00:41:23.208Z,63.57
2019-04-30T00:42:04.900Z,63.48
2019-04-30T00:42:45.743Z,63.29
2019-04-30T00:43:25.283Z,63.2
2019-04-30T00:44:05.482Z,63.2
2019-04-30T00:44:46.009Z,62.78
2019-04-30T00:45:26.558Z,62.69
2019-04-30T00:46:07.142Z,63.26
2019-04-30T00:46:47.958Z,63.17
2019-04-30T00:47:28.258Z,63.26
2019-04-30T00:48:08.819Z,63.35
2019-04-30T00:48:50.127Z,63.83
2019-04-30T00:49:30.669Z,64.02
2019-04-30T00:50:11.250Z,63.92
2019-04-30T00:50:51.835Z,63.54
2019-04-30T00:51:32.384Z,64.21
2019-04-30T00:52:12.944Z,63.83
2019-04-30T00:52:53.489Z,63.92
2019-04-30T00:53:35.780Z,63.92
2019-04-30T00:54:15.202Z,63.92
2019-04-30T00:54:55.378Z,64.11
2019-04-30T00:55:38.056Z,63.54
2019-04-30T00:56:19.821Z,63.83
2019-04-30T00:57:03.382Z,63.92
2019-04-30T00:57:43.524Z,63.73
2019-04-30T00:58:24.635Z,64.02
2019-04-30T00:59:02.382Z,63.64
2019-04-30T00:59:39.678Z,63.92
2019-04-30T01:00:25.851Z,64.02
2019-04-30T01:01:04.782Z,63.73
2019-04-30T01:01:43.467Z,64.02
2019-04-30T01:02:28.611Z,63.54
2019-04-30T01:03:05.759Z,63.83
2019-04-30T01:03:44.289Z,63.83
2019-04-30T01:04:24.371Z,63.92
2019-04-30T01:05:05.940Z,64.11
2019-04-30T01:05:47.794Z,64.21
2019-04-30T01:06:28.562Z,63.83
2019-04-30T01:07:08.560Z,63.73
2019-04-30T01:07:50.159Z,64.02
2019-04-30T01:08:28.409Z,64.4
2019-04-30T01:09:08.566Z,64.69
2019-04-30T01:09:49.808Z,64.5
2019-04-30T01:10:28.463Z,63.92
2019-04-30T01:11:09.548Z,64.31
2019-04-30T01:11:49.305Z,64.31
2019-04-30T01:12:34.451Z,64.4
2019-04-30T01:13:12.032Z,64.31
2019-04-30T01:13:53.905Z,64.4
2019-04-30T01:14:32.169Z,64.4
2019-04-30T01:15:14.386Z,64.5
2019-04-30T01:15:53.099Z,64.59
2019-04-30T01:16:33.722Z,64.31
2019-04-30T01:17:14.322Z,64.4
2019-04-30T01:17:54.889Z,64.11
2019-04-30T01:18:35.450Z,64.59
2019-04-30T01:19:27.142Z,64.31
2019-04-30T01:19:56.556Z,64.31
2019-04-30T01:20:38.571Z,64.5
2019-04-30T01:21:18.475Z,64.21
2019-04-30T01:24:31.834Z,64.69
2019-04-30T01:25:13.544Z,64.59
2019-04-30T01:25:52.766Z,64.5
2019-04-30T01:26:33.333Z,64.59
2019-04-30T01:27:13.918Z,64.5
2019-04-30T01:27:54.496Z,64.11
2019-04-30T01:28:35.050Z,64.11
2019-04-30T01:29:15.599Z,64.4
2019-04-30T01:29:56.149Z,64.31
2019-04-30T01:30:36.729Z,64.4
2019-04-30T01:31:18.721Z,64.21
2019-04-30T01:31:58.584Z,64.4
2019-04-30T01:32:39.470Z,64.11
2019-04-30T01:33:19.226Z,64.11
2019-04-30T01:33:59.577Z,64.31
2019-04-30T01:34:44.115Z,64.21
2019-04-30T01:35:23.742Z,64.37
2019-04-30T01:36:03.973Z,64.4
2019-04-30T01:36:43.399Z,64.59
2019-04-30T01:37:28.247Z,64.5
2019-04-30T01:38:03.945Z,64.31
2019-04-30T01:38:44.733Z,65.06
2019-04-30T01:39:28.368Z,65.03
2019-04-30T01:40:08.016Z,65.25
2019-04-30T01:40:47.372Z,63.92
2019-04-30T01:41:27.284Z,64.37
2019-04-30T01:42:07.766Z,64.37
2019-04-30T01:42:48.418Z,64.46
2019-04-30T01:43:31.347Z,64.56
2019-04-30T01:44:11.803Z,64.94
2019-04-30T01:44:53.485Z,64.75
2019-04-30T01:45:31.559Z,65.03
2019-04-30T01:46:13.776Z,64.84
2019-04-30T01:46:51.740Z,65.03
2019-04-30T01:47:31.331Z,64.75
2019-04-30T01:48:12.644Z,65.13
2019-04-30T01:48:52.209Z,65.22
2019-04-30T01:49:41.928Z,65.41
2019-04-30T01:50:13.375Z,65.13
2019-04-30T01:50:53.965Z,65.13
2019-04-30T01:51:34.540Z,65.13
2019-04-30T01:52:15.121Z,64.84
2019-04-30T01:52:55.752Z,64.46
2019-04-30T01:53:36.334Z,64.27
2019-04-30T01:54:18.614Z,65.03
2019-04-30T01:54:58.616Z,65.03
2019-04-30T01:55:38.965Z,64.27
2019-04-30T01:56:19.160Z,64.46
2019-04-30T01:56:59.476Z,64.56
2019-04-30T01:57:39.870Z,64.46
2019-04-30T01:58:20.496Z,64.84
2019-04-30T01:59:01.052Z,65.32
2019-04-30T01:59:41.637Z,65.22
2019-04-30T02:00:22.213Z,65.32
2019-04-30T02:01:02.799Z,65.03
2019-04-30T02:01:43.366Z,65.41
2019-04-30T02:02:23.938Z,65.22
2019-04-30T02:03:04.492Z,65.22
2019-04-30T02:03:45.044Z,65.13
2019-04-30T02:04:25.620Z,65.6
2019-04-30T02:05:06.180Z,65.51
2019-04-30T02:05:46.737Z,65.6
2019-04-30T02:06:29.306Z,65.99
2019-04-30T02:07:08.998Z,65.99
2019-04-30T02:07:48.700Z,65.99
2019-04-30T02:08:29.485Z,65.89
2019-04-30T02:09:09.549Z,65.51
2019-04-30T02:09:50.104Z,65.32
2019-04-30T02:10:30.676Z,65.41
2019-04-30T02:11:11.267Z,65.13
2019-04-30T02:11:51.839Z,65.6
2019-04-30T02:12:32.772Z,65.51
2019-04-30T02:13:13.336Z,65.51
2019-04-30T02:13:53.885Z,65.32
2019-04-30T02:14:34.494Z,65.6
2019-04-30T02:15:15.046Z,65.41
2019-04-30T02:15:55.600Z,65.51
2019-04-30T02:16:36.174Z,65.41
2019-04-30T02:17:16.734Z,65.41
2019-04-30T02:17:58.675Z,65.51
2019-04-30T02:18:39.375Z,65.8
2019-04-30T02:19:18.799Z,65.51
2019-04-30T02:19:59.238Z,65.8
2019-04-30T02:20:39.570Z,65.99
2019-04-30T02:21:20.132Z,65.32
2019-04-30T02:22:00.697Z,65.6
2019-04-30T02:22:41.261Z,65.51
2019-04-30T02:23:21.835Z,65.03
2019-04-30T02:24:02.406Z,64.84
2019-04-30T02:24:42.988Z,64.84
2019-04-30T02:25:23.548Z,64.75
2019-04-30T02:26:04.103Z,65.03
2019-04-30T02:26:44.669Z,65.51
2019-04-30T02:27:25.246Z,65.51
2019-04-30T02:28:05.841Z,65.13
2019-04-30T02:28:46.428Z,65.51
2019-04-30T02:29:26.986Z,65.8
2019-04-30T02:30:10.744Z,66.08
2019-04-30T02:30:50.332Z,65.51
2019-04-30T02:31:30.922Z,65.41
2019-04-30T02:32:10.083Z,65.7
2019-04-30T02:32:52.463Z,65.89
2019-04-30T02:33:30.748Z,65.89
2019-04-30T02:34:10.882Z,65.89
2019-04-30T02:34:51.444Z,65.89
2019-04-30T02:35:31.999Z,65.99
2019-04-30T02:36:12.570Z,65.8
2019-04-30T02:36:53.127Z,65.6
2019-04-30T02:37:33.707Z,65.6
2019-04-30T02:38:14.251Z,65.89
2019-04-30T02:38:54.804Z,65.6
2019-04-30T02:39:35.385Z,65.41
2019-04-30T02:40:15.999Z,65.8
2019-04-30T02:40:56.568Z,65.99
2019-04-30T02:41:37.128Z,65.89
2019-04-30T02:42:20.051Z,65.99
2019-04-30T02:43:01.736Z,66.08
2019-04-30T02:43:41.570Z,65.8
2019-04-30T02:44:22.133Z,65.8
2019-04-30T02:45:03.680Z,66.08
2019-04-30T02:45:43.262Z,65.89
2019-04-30T02:46:23.837Z,65.8
2019-04-30T02:47:04.413Z,66.08
2019-04-30T02:47:44.958Z,65.8
2019-04-30T02:48:25.570Z,65.99
2019-04-30T02:49:06.126Z,65.7
2019-04-30T02:49:46.695Z,66.17
2019-04-30T02:50:29.333Z,65.99
2019-04-30T02:51:09.929Z,65.6
2019-04-30T02:51:49.899Z,65.51
2019-04-30T02:52:29.429Z,65.51
2019-04-30T02:53:09.773Z,65.7
2019-04-30T02:53:50.573Z,65.8
2019-04-30T02:54:30.532Z,65.51
2019-04-30T02:55:11.100Z,65.51
2019-04-30T02:55:51.683Z,65.89
2019-04-30T02:56:32.254Z,65.51
2019-04-30T02:57:12.850Z,65.8
2019-04-30T02:57:53.391Z,65.8
2019-04-30T02:58:33.959Z,65.8
2019-04-30T02:59:14.537Z,65.6
2019-04-30T02:59:55.083Z,65.41
2019-04-30T03:00:35.632Z,65.51
2019-04-30T03:01:16.211Z,66.08
2019-04-30T03:01:59.477Z,65.89
2019-04-30T03:02:39.336Z,65.89
2019-04-30T03:03:20.285Z,65.89
2019-04-30T03:03:59.762Z,65.89
2019-04-30T03:04:39.500Z,66.08
2019-04-30T03:05:20.332Z,65.51
2019-04-30T03:06:00.121Z,65.6
2019-04-30T03:06:40.768Z,65.99
2019-04-30T03:07:21.261Z,65.99
2019-04-30T03:08:01.851Z,65.6
2019-04-30T03:08:42.418Z,65.32
2019-04-30T03:09:22.990Z,65.38
2019-04-30T03:10:03.562Z,65.51
2019-04-30T03:10:44.130Z,65.89
2019-04-30T03:11:24.665Z,65.8
2019-04-30T03:12:05.212Z,65.6
2019-04-30T03:12:45.774Z,65.47
2019-04-30T03:13:26.371Z,65.86
2019-04-30T03:14:06.922Z,65.6
2019-04-30T03:14:49.737Z,65.6
2019-04-30T03:15:29.811Z,66.08
2019-04-30T03:16:09.389Z,65.7
2019-04-30T03:16:52.342Z,65.51
2019-04-30T03:17:29.699Z,65.8
2019-04-30T03:18:10.253Z,65.99
2019-04-30T03:18:50.805Z,65.6
2019-04-30T03:19:31.367Z,65.8
2019-04-30T03:20:20.192Z,65.57
2019-04-30T03:20:52.495Z,65.51
2019-04-30T03:21:33.077Z,65.8
2019-04-30T03:22:13.611Z,65.99
2019-04-30T03:22:54.173Z,66.08
2019-04-30T03:23:34.718Z,65.89
2019-04-30T03:24:15.282Z,65.8
2019-04-30T03:24:55.833Z,65.8
2019-04-30T03:25:36.393Z,65.8
2019-04-30T03:26:19.824Z,65.32
2019-04-30T03:26:59.383Z,65.32
2019-04-30T03:27:42.048Z,65.67
2019-04-30T03:28:20.134Z,65.6
2019-04-30T03:29:00.770Z,65.41
2019-04-30T03:29:40.403Z,65.47
2019-04-30T03:30:21.721Z,65.6
2019-04-30T03:31:04.193Z,65.6
2019-04-30T03:31:44.676Z,65.32
2019-04-30T03:32:23.010Z,65.41
2019-04-30T03:33:03.202Z,65.22
2019-04-30T03:33:43.130Z,64.84
2019-04-30T03:34:25.403Z,64.94
2019-04-30T03:35:04.237Z,64.75
2019-04-30T03:35:47.549Z,65.22
2019-04-30T03:36:25.329Z,65.22
2019-04-30T03:37:05.889Z,65.13
2019-04-30T03:37:46.466Z,64.72
2019-04-30T03:38:26.983Z,65
2019-04-30T03:39:10.329Z,65.09
2019-04-30T03:39:49.272Z,65.28
2019-04-30T03:40:30.162Z,65.57
2019-04-30T03:41:09.721Z,65.38
2019-04-30T03:41:50.317Z,65.19
2019-04-30T03:42:30.412Z,65.28
2019-04-30T03:43:11.019Z,65.57
2019-04-30T03:43:51.590Z,65.57
2019-04-30T03:44:32.630Z,65.47
2019-04-30T03:45:12.798Z,65.09
2019-04-30T03:45:53.357Z,65.38
2019-04-30T03:46:33.947Z,65.76
2019-04-30T03:47:14.498Z,65.57
2019-04-30T03:47:55.083Z,65.76
2019-04-30T03:48:35.644Z,65.76
2019-04-30T03:49:16.208Z,65.47
2019-04-30T03:49:59.847Z,65.86
2019-04-30T03:50:50.056Z,65.86
2019-04-30T03:51:19.866Z,66.14
2019-04-30T03:51:59.774Z,66.08
2019-04-30T03:52:39.510Z,66.08
2019-04-30T03:53:20.294Z,65.99
2019-04-30T03:54:00.389Z,65.6
2019-04-30T03:54:41.065Z,65.13
2019-04-30T03:55:24.650Z,64.75
2019-04-30T03:56:02.192Z,64.94
2019-04-30T03:56:42.827Z,64.94
2019-04-30T03:57:23.410Z,65.19
2019-04-30T04:00:41.988Z,64.84
2019-04-30T04:01:19.585Z,65.32
2019-04-30T04:01:59.516Z,64.84
2019-04-30T04:02:40.444Z,65.03
2019-04-30T04:03:20.252Z,65.32
2019-04-30T04:04:00.722Z,64.94
2019-04-30T04:04:41.241Z,65.13
2019-04-30T04:05:21.781Z,64.56
2019-04-30T04:06:02.338Z,64.65
2019-04-30T04:06:42.903Z,64.84
2019-04-30T04:07:23.451Z,64.75
2019-04-30T04:08:04.003Z,64.46
2019-04-30T04:08:44.579Z,64.56
2019-04-30T04:09:25.140Z,64.84
2019-04-30T04:10:05.703Z,65.13
2019-04-30T04:10:46.265Z,64.84
2019-04-30T04:11:26.823Z,64.43
2019-04-30T04:12:09.601Z,64.37
2019-04-30T04:12:49.717Z,64.27
2019-04-30T04:13:29.974Z,64.08
2019-04-30T04:14:09.358Z,64.46
2019-04-30T04:14:50.882Z,64.27
2019-04-30T04:15:30.252Z,65.13
2019-04-30T04:16:10.825Z,64.84
2019-04-30T04:16:51.372Z,64.81
2019-04-30T04:17:31.953Z,64.81
2019-04-30T04:18:12.514Z,64.84
2019-04-30T04:18:53.110Z,65.32
2019-04-30T04:19:33.675Z,64.81
2019-04-30T04:20:14.331Z,64.43
2019-04-30T04:21:07.354Z,64.37
2019-04-30T04:21:35.469Z,64.56
2019-04-30T04:22:16.008Z,64.53
2019-04-30T04:22:56.663Z,65.03
2019-04-30T04:23:39.850Z,64.94
2019-04-30T04:24:20.170Z,64.84
2019-04-30T04:24:59.968Z,64.56
2019-04-30T04:25:39.908Z,64.14
2019-04-30T04:26:20.209Z,64.34
2019-04-30T04:27:00.025Z,64.34
2019-04-30T04:27:40.587Z,64.34
2019-04-30T04:28:21.146Z,64.34
2019-04-30T04:29:01.732Z,64.24
2019-04-30T04:29:42.282Z,64.43
2019-04-30T04:30:22.832Z,64.34
2019-04-30T04:31:03.414Z,64.53
2019-04-30T04:31:44.020Z,64.18
2019-04-30T04:32:24.730Z,64.43
2019-04-30T04:33:05.178Z,65
2019-04-30T04:33:45.726Z,65
2019-04-30T04:34:26.301Z,65.03
2019-04-30T04:35:09.815Z,65.13
2019-04-30T04:35:49.750Z,64.81
2019-04-30T04:36:30.122Z,64.9
2019-04-30T04:37:10.040Z,64.18
2019-04-30T04:37:49.725Z,64.27
2019-04-30T04:38:30.332Z,64.56
2019-04-30T04:39:10.255Z,65.03
2019-04-30T04:39:50.819Z,64.65
2019-04-30T04:40:31.387Z,64.75
2019-04-30T04:41:11.933Z,64.72
2019-04-30T04:41:52.471Z,64.75
2019-04-30T04:42:33.286Z,64.9
2019-04-30T04:43:13.589Z,64.75
2019-04-30T04:43:54.160Z,64.94
2019-04-30T04:44:34.721Z,65.22
2019-04-30T04:45:15.275Z,64.75
2019-04-30T04:45:55.840Z,64.84
2019-04-30T04:46:36.396Z,65.22
2019-04-30T04:47:19.443Z,65.22
2019-04-30T04:47:59.707Z,65.13
2019-04-30T04:48:39.384Z,64.94
2019-04-30T04:49:20.565Z,64.65
2019-04-30T04:50:00.615Z,64.46
2019-04-30T04:50:40.167Z,64.43
2019-04-30T04:51:34.226Z,64.72
2019-04-30T04:52:00.968Z,64.94
2019-04-30T04:52:41.525Z,64.72
2019-04-30T04:53:22.089Z,65
2019-04-30T04:54:03.183Z,64.9
2019-04-30T04:54:43.256Z,64.84
2019-04-30T04:55:23.825Z,64.72
2019-04-30T04:56:04.390Z,64.84
2019-04-30T04:56:44.948Z,65.38
2019-04-30T04:57:25.497Z,65.57
2019-04-30T04:58:06.063Z,65.28
2019-04-30T04:58:46.677Z,65.67
2019-04-30T04:59:29.559Z,65.57
2019-04-30T05:00:10.379Z,65.57
2019-04-30T05:00:49.426Z,65.6
2019-04-30T05:01:28.975Z,65.86
2019-04-30T05:02:09.921Z,65.8
2019-04-30T05:02:50.095Z,65.47
2019-04-30T05:03:30.726Z,65.57
2019-04-30T05:04:12.035Z,65.7
2019-04-30T05:04:53.038Z,65.38
2019-04-30T05:05:34.739Z,65.95
2019-04-30T05:06:15.393Z,65.86
2019-04-30T05:06:56.176Z,65.99
2019-04-30T05:07:36.961Z,65.86
2019-04-30T05:08:18.544Z,65.95
2019-04-30T05:08:59.139Z,65.76
2019-04-30T05:09:39.704Z,65.99
2019-04-30T05:10:20.199Z,65.57
2019-04-30T05:11:02.841Z,65.51
2019-04-30T05:11:41.536Z,65.8
2019-04-30T05:12:22.146Z,66.08
2019-04-30T05:13:02.772Z,66.14
2019-04-30T05:13:43.352Z,65.99
2019-04-30T05:14:23.934Z,65.6
2019-04-30T05:15:04.479Z,65.76
2019-04-30T05:15:45.030Z,66.05
2019-04-30T05:16:25.602Z,66.46
2019-04-30T05:17:06.165Z,66.46
2019-04-30T05:17:46.768Z,66.27
2019-04-30T05:18:28.686Z,66.27
2019-04-30T05:19:08.844Z,66.36
2019-04-30T05:19:48.759Z,66.17
2019-04-30T05:20:29.230Z,66.17
2019-04-30T05:21:09.723Z,66.08
2019-04-30T05:21:51.661Z,65.89
2019-04-30T05:24:28.642Z,65.89
2019-04-30T05:25:09.180Z,65.99
2019-04-30T05:25:49.286Z,66.08
2019-04-30T05:26:30.211Z,66.46
2019-04-30T05:27:10.972Z,66.36
2019-04-30T05:27:52.158Z,66.17
2019-04-30T05:28:33.093Z,66.17
2019-04-30T05:29:13.674Z,65.89
2019-04-30T05:29:54.267Z,65.7
2019-04-30T05:30:34.816Z,66.17
2019-04-30T05:31:15.379Z,66.27
2019-04-30T05:31:55.952Z,66.08
2019-04-30T05:32:36.499Z,66.27
2019-04-30T05:33:18.591Z,66.46
2019-04-30T05:33:58.683Z,66.08
2019-04-30T05:34:38.560Z,65.7
2019-04-30T05:35:18.745Z,65.8
2019-04-30T05:35:59.517Z,65.51
2019-04-30T05:36:39.883Z,65.51
2019-04-30T05:37:22.262Z,66.08
2019-04-30T05:38:01.028Z,65.51
2019-04-30T05:38:41.595Z,65.89
2019-04-30T05:39:22.155Z,65.7
2019-04-30T05:40:02.717Z,65.89
2019-04-30T05:40:43.293Z,65.8
2019-04-30T05:41:23.856Z,66.08
2019-04-30T05:42:04.465Z,65.51
2019-04-30T05:42:45.022Z,65.89
2019-04-30T05:43:25.592Z,65.7
2019-04-30T05:44:06.162Z,65.99
2019-04-30T05:44:46.735Z,65.89
2019-04-30T05:45:28.932Z,65.8
2019-04-30T05:46:08.299Z,65.89
2019-04-30T05:46:49.379Z,65.99
2019-04-30T05:47:29.240Z,65.54
2019-04-30T05:48:09.664Z,65.83
2019-04-30T05:48:50.234Z,65.73
2019-04-30T05:49:30.805Z,65.64
2019-04-30T05:50:11.372Z,65.25
2019-04-30T05:50:51.943Z,64.87
2019-04-30T05:51:32.504Z,64.59
2019-04-30T05:52:13.069Z,64.5
2019-04-30T05:52:53.675Z,64.21
2019-04-30T05:53:34.240Z,63.83
2019-04-30T05:54:14.953Z,64.02
2019-04-30T05:54:55.523Z,63.64
2019-04-30T05:55:36.094Z,63.39
2019-04-30T05:56:16.701Z,62.43
2019-04-30T05:56:57.247Z,62.62
2019-04-30T05:57:43.360Z,62.24
2019-04-30T05:58:19.686Z,62.34
2019-04-30T05:58:59.347Z,62.15
2019-04-30T05:59:39.523Z,62.05
2019-04-30T06:00:20.068Z,62.05
2019-04-30T06:01:00.641Z,61.77
2019-04-30T06:01:47.823Z,61.19
2019-04-30T06:02:21.747Z,61.29
2019-04-30T06:03:02.369Z,60.91
2019-04-30T06:03:42.981Z,61.04
2019-04-30T06:04:23.571Z,60.37
2019-04-30T06:05:04.217Z,60.08
2019-04-30T06:05:44.778Z,60.18
2019-04-30T06:06:25.333Z,60.37
2019-04-30T06:07:05.907Z,60.08
2019-04-30T06:07:46.479Z,60.08
2019-04-30T06:08:27.404Z,59.8
2019-04-30T06:09:12.993Z,59.35
2019-04-30T06:09:48.556Z,59.26
2019-04-30T06:10:29.338Z,58.5
2019-04-30T06:11:09.474Z,58.21
2019-04-30T06:11:50.049Z,58.11
2019-04-30T06:12:30.682Z,57.92
2019-04-30T06:13:11.268Z,57.73
2019-04-30T06:13:51.974Z,57.07
2019-04-30T06:14:32.651Z,56.33
2019-04-30T06:15:13.232Z,56.62
2019-04-30T06:15:54.744Z,56.62
2019-04-30T06:16:35.303Z,56.71
2019-04-30T06:17:15.882Z,55.85
2019-04-30T06:18:01.026Z,56.14
2019-04-30T06:18:38.501Z,56.26
2019-04-30T06:19:19.498Z,55.79
2019-04-30T06:19:59.061Z,55.12
2019-04-30T06:20:38.774Z,54.93
2019-04-30T06:21:21.518Z,54.45
2019-04-30T06:22:07.274Z,54.36
2019-04-30T06:22:40.457Z,54.38
2019-04-30T06:23:21.177Z,53.62
2019-04-30T06:24:01.905Z,53.14
2019-04-30T06:24:42.477Z,53.14
2019-04-30T06:25:30.829Z,52.28
2019-04-30T06:26:09.529Z,51.62
2019-04-30T06:26:44.190Z,51.64
2019-04-30T06:27:24.792Z,50.49
2019-04-30T06:28:05.403Z,49.93
2019-04-30T06:28:46.026Z,50.21
2019-04-30T06:29:29.470Z,49.93
2019-04-30T06:30:36.302Z,50.21
2019-04-30T06:31:22.269Z,50.21
2019-04-30T06:32:00.504Z,50.14
2019-04-30T06:32:41.105Z,49.76
2019-04-30T06:33:21.688Z,49.09
2019-04-30T06:34:02.271Z,49.47
2019-04-30T06:34:42.859Z,49.57
2019-04-30T06:35:23.435Z,48.16
2019-04-30T06:36:04.003Z,47.2
2019-04-30T06:36:50.932Z,47.39
2019-04-30T06:37:25.160Z,47.87
2019-04-30T06:38:05.756Z,47.39
2019-04-30T06:38:46.351Z,47.01
2019-04-30T06:39:28.716Z,46.72
2019-04-30T06:40:09.376Z,46.82
2019-04-30T06:40:48.826Z,46.84
2019-04-30T06:41:29.555Z,46.56
2019-04-30T06:42:12.739Z,46.46
2019-04-30T06:42:49.765Z,46.46
2019-04-30T06:43:30.338Z,45.22
2019-04-30T06:44:10.917Z,45.6
2019-04-30T06:44:51.470Z,44.84
2019-04-30T06:45:32.043Z,44.86
2019-04-30T06:46:12.621Z,44.76
2019-04-30T06:46:53.200Z,44.19
2019-04-30T06:47:33.797Z,43.9
2019-04-30T06:48:14.361Z,43.62
2019-04-30T06:48:54.924Z,43.9
2019-04-30T06:49:35.490Z,43.04
2019-04-30T06:50:16.120Z,42.85
2019-04-30T06:50:56.703Z,42.76
2019-04-30T06:51:38.909Z,42.18
2019-04-30T06:52:21.193Z,41.82
2019-04-30T06:52:59.338Z,41.63
2019-04-30T06:53:39.201Z,42.11
2019-04-30T06:54:19.622Z,41.63
2019-04-30T06:55:00.234Z,42.2
2019-04-30T06:55:40.844Z,41.82
2019-04-30T06:56:21.373Z,40.38
2019-04-30T06:57:01.996Z,40.58
2019-04-30T06:57:42.587Z,39.9
2019-04-30T06:58:23.179Z,40.58
2019-04-30T06:59:03.786Z,40.75
2019-04-30T06:59:44.348Z,40.84
2019-04-30T07:00:32.721Z,41.05
2019-04-30T07:01:05.521Z,40.67
2019-04-30T07:01:46.100Z,40.77
2019-04-30T07:02:26.686Z,40.67
2019-04-30T07:03:09.287Z,40.58
2019-04-30T07:03:48.691Z,40.5
2019-04-30T07:04:29.276Z,39.83
2019-04-30T07:05:10.151Z,39.64
2019-04-30T07:05:49.654Z,39.45
2019-04-30T07:06:32.627Z,39.45
2019-04-30T07:07:14.240Z,39.35
2019-04-30T07:07:53.255Z,39.16
2019-04-30T07:08:39.073Z,38.87
2019-04-30T07:09:12.632Z,38.59
2019-04-30T07:09:58.176Z,38.78
2019-04-30T07:10:33.776Z,39.54
2019-04-30T07:11:14.393Z,39.83
2019-04-30T07:11:54.981Z,39.35
2019-04-30T07:12:35.915Z,39.25
2019-04-30T07:13:16.492Z,39.83
2019-04-30T07:13:57.068Z,39.94
2019-04-30T07:14:40.029Z,39.56
2019-04-30T07:15:19.626Z,39.37
2019-04-30T07:15:58.836Z,39.28
2019-04-30T07:16:39.756Z,38.89
2019-04-30T07:17:19.991Z,38.6
2019-04-30T07:18:00.597Z,37.85
2019-04-30T07:18:41.165Z,37.65
2019-04-30T07:19:31.604Z,36.98
2019-04-30T07:20:02.394Z,37.09
2019-04-30T07:20:43.000Z,37.18
2019-04-30T07:21:23.603Z,37.66
2019-04-30T07:22:04.198Z,37.66
2019-04-30T07:22:49.584Z,37.28
2019-04-30T07:23:25.411Z,36.9
2019-04-30T07:24:06.017Z,36.13
2019-04-30T07:24:46.643Z,35.75
2019-04-30T07:25:28.938Z,35.84
2019-04-30T07:26:08.974Z,35.27
2019-04-30T07:26:48.925Z,35.08
2019-04-30T07:27:30.100Z,34.31
2019-04-30T07:28:09.622Z,34.59
2019-04-30T07:28:54.694Z,35.08
2019-04-30T07:29:30.922Z,35.08
2019-04-30T07:30:11.522Z,35.55
2019-04-30T07:31:07.524Z,35.94
2019-04-30T07:31:32.747Z,36.61
2019-04-30T07:32:13.338Z,36.51
2019-04-30T07:32:53.983Z,36.42
2019-04-30T07:33:34.539Z,35.46
2019-04-30T07:34:15.117Z,35.75
2019-04-30T07:34:55.777Z,37.09
2019-04-30T07:35:36.395Z,36.99
2019-04-30T07:36:19.320Z,36.8
2019-04-30T07:37:11.703Z,37.11
2019-04-30T07:37:39.109Z,37.3
2019-04-30T07:38:19.321Z,35.96
2019-04-30T07:38:59.853Z,35.96
2019-04-30T07:39:39.909Z,36.53
2019-04-30T07:40:20.492Z,36.34
2019-04-30T07:41:01.112Z,36.63
2019-04-30T07:41:41.703Z,37.13
2019-04-30T07:42:22.278Z,35.78
2019-04-30T07:43:02.911Z,35.11
2019-04-30T07:43:43.488Z,33.77
2019-04-30T07:44:33.224Z,33.48
2019-04-30T07:45:04.647Z,34.25
2019-04-30T07:45:45.266Z,35.1
2019-04-30T07:46:25.864Z,35
2019-04-30T07:47:06.429Z,34.42
2019-04-30T07:47:47.010Z,35.49
2019-04-30T07:48:29.668Z,35.02
2019-04-30T07:49:10.029Z,35.21
2019-04-30T07:49:52.767Z,35.21
2019-04-30T07:50:31.042Z,35.11
2019-04-30T07:51:10.816Z,36.26
2019-04-30T07:51:51.684Z,35.88
2019-04-30T07:52:34.040Z,35.78
2019-04-30T07:53:12.338Z,36.16
2019-04-30T07:53:52.363Z,34.73
2019-04-30T07:54:32.973Z,34.25
2019-04-30T07:55:13.515Z,34.44
2019-04-30T07:55:54.093Z,35.11
2019-04-30T07:56:37.824Z,36.16
2019-04-30T07:57:15.274Z,35.97
2019-04-30T07:57:55.857Z,36.46
2019-04-30T07:58:38.572Z,35.11
2019-04-30T07:59:17.054Z,35.02
2019-04-30T07:59:59.682Z,35.4
2019-04-30T08:00:40.216Z,35.97
2019-04-30T08:01:19.544Z,36.36
2019-04-30T08:02:07.280Z,36.36
2019-04-30T08:02:43.512Z,35.3
2019-04-30T08:03:20.974Z,35.4
2019-04-30T08:04:01.236Z,35.78
2019-04-30T08:04:41.834Z,35.97
2019-04-30T08:05:22.390Z,34.15
2019-04-30T08:06:03.170Z,34.53
2019-04-30T08:06:43.670Z,34.82
2019-04-30T08:07:24.256Z,35.4
2019-04-30T08:08:17.547Z,34.92
2019-04-30T08:08:45.615Z,35.11
2019-04-30T08:09:26.120Z,34.73
2019-04-30T08:10:08.571Z,34.82
2019-04-30T08:10:50.623Z,34.53
2019-04-30T08:11:29.274Z,34.53
2019-04-30T08:12:09.172Z,35.21
2019-04-30T08:12:50.339Z,34.34
2019-04-30T08:13:32.539Z,34.34
2019-04-30T08:14:10.868Z,33.67
2019-04-30T08:14:51.455Z,34.25
2019-04-30T08:15:32.045Z,34.34
2019-04-30T08:16:12.772Z,34.63
2019-04-30T08:16:53.418Z,35.02
2019-04-30T08:17:34.031Z,36.26
2019-04-30T08:18:14.611Z,36.65
2019-04-30T08:18:55.292Z,36.46
2019-04-30T08:19:35.939Z,36.09
2019-04-30T08:20:16.521Z,35.42
2019-04-30T08:20:58.649Z,35.32
2019-04-30T08:21:38.699Z,35.13
2019-04-30T08:22:19.587Z,35.13
2019-04-30T08:23:07.099Z,34.65
2019-04-30T08:23:39.867Z,35.13
2019-04-30T08:24:20.106Z,34.65
2019-04-30T08:25:00.708Z,34.45
2019-04-30T08:25:41.276Z,35.13
2019-04-30T08:26:21.884Z,35.42
2019-04-30T08:27:02.462Z,35.13
2019-04-30T08:27:43.107Z,35.22
2019-04-30T08:28:23.711Z,35.32
2019-04-30T08:29:04.288Z,35.8
2019-04-30T08:29:44.865Z,35.32
2019-04-30T08:30:26.849Z,35.13
2019-04-30T08:31:06.155Z,35.22
2019-04-30T08:31:46.734Z,35.61
2019-04-30T08:32:28.923Z,34.27
2019-04-30T08:33:09.393Z,33.98
2019-04-30T08:33:49.032Z,34.55
2019-04-30T08:34:29.338Z,34.27
2019-04-30T08:35:10.014Z,34.75
2019-04-30T08:35:50.376Z,35.13
2019-04-30T08:36:33.038Z,35.22
2019-04-30T08:37:16.815Z,35.03
2019-04-30T08:37:52.235Z,34.36
2019-04-30T08:38:32.803Z,33.69
2019-04-30T08:39:13.433Z,34.27
2019-04-30T08:39:53.993Z,34.07
2019-04-30T08:40:34.621Z,34.36
2019-04-30T08:41:15.247Z,33.88
2019-04-30T08:41:55.852Z,33.5
2019-04-30T08:42:38.301Z,33.69
2019-04-30T08:44:50.373Z,34.65
2019-04-30T08:45:33.162Z,34.65
2019-04-30T08:46:11.510Z,35.71
2019-04-30T08:46:52.077Z,35.61
2019-04-30T08:47:32.634Z,35.13
2019-04-30T08:48:13.206Z,34.65
2019-04-30T08:48:53.893Z,34.27
2019-04-30T08:49:34.579Z,33.31
2019-04-30T08:50:14.928Z,33.31
2019-04-30T08:50:55.501Z,34.17
2019-04-30T08:51:36.116Z,34.65
2019-04-30T08:52:16.707Z,33.98
2019-04-30T08:52:59.251Z,34.27
2019-04-30T08:53:38.479Z,33.88
2019-04-30T08:54:19.678Z,34.36
2019-04-30T08:55:12.555Z,34.27
2019-04-30T08:55:39.552Z,33.69
2019-04-30T08:56:21.932Z,33.01
2019-04-30T08:57:00.727Z,32.64